Terminal Aerodrome Forecast
Issued by NWS

Current Version | Previous Version | Text Only | Print | Product List | Glossary Off
Versions: 1 2 3 4 5 6 7 8 9 10 11 12 13 14 15 16 17 18 19 20 21 22

590
FTUS41 KILN 231156 CCA
TAFLUK
TAF COR
KLUK 231156Z 2312/2412 00000KT 2SM BR SCT002 BKN120
      TEMPO 2312/2313 1/2SM FZFG BKN002
     FM231400 21004KT P6SM BKN100
     FM240000 VRB03KT P6SM FEW100
     FM240900 16004KT P6SM SKC=

USA.gov is the U.S. government's official web portal to all federal, state and local government web resources and services.